createdAt,value
2022-07-27T00:02:16.903Z,23.07
2022-07-27T00:05:00.836Z,22.95
2022-07-27T00:07:46.546Z,22.93
2022-07-27T00:10:30.371Z,22.97
2022-07-27T00:13:14.225Z,23.08
2022-07-27T00:15:58.187Z,22.63
2022-07-27T00:18:43.553Z,22.77
2022-07-27T00:21:27.793Z,23.00
2022-07-27T00:24:11.732Z,23.10
2022-07-27T00:26:55.596Z,23.00
2022-07-27T00:29:39.497Z,23.00
2022-07-27T00:32:23.361Z,22.71
2022-07-27T00:35:10.273Z,23.02
2022-07-27T00:37:54.479Z,23.09
2022-07-27T00:40:38.436Z,23.08
2022-07-27T00:43:22.465Z,22.74
2022-07-27T00:46:06.565Z,22.81
2022-07-27T00:48:51.219Z,22.81
2022-07-27T00:51:36.617Z,22.82
2022-07-27T00:54:21.073Z,22.87
2022-07-27T00:57:05.536Z,22.75
2022-07-27T00:59:49.614Z,22.48
2022-07-27T01:02:33.640Z,22.68
2022-07-27T01:05:17.981Z,22.67
2022-07-27T01:08:03.529Z,22.63
2022-07-27T01:10:48.508Z,22.68
2022-07-27T01:13:35.250Z,22.58
2022-07-27T01:16:21.202Z,22.67
2022-07-27T01:19:05.227Z,22.53
2022-07-27T01:21:52.132Z,22.50
2022-07-27T01:24:36.172Z,22.24
2022-07-27T01:27:20.156Z,22.33
2022-07-27T01:30:04.136Z,22.27
2022-07-27T01:32:48.282Z,22.28
2022-07-27T01:35:32.461Z,21.99
2022-07-27T01:38:17.778Z,22.19
2022-07-27T01:41:01.716Z,22.28
2022-07-27T01:43:46.433Z,22.05
2022-07-27T01:46:30.402Z,22.07
2022-07-27T01:49:14.823Z,22.06
2022-07-27T01:51:59.137Z,22.21
2022-07-27T01:54:44.395Z,22.24
2022-07-27T01:57:28.330Z,22.24
2022-07-27T02:00:13.799Z,22.06
2022-07-27T02:02:57.634Z,21.55
2022-07-27T02:05:41.664Z,21.89
2022-07-27T02:08:25.798Z,22.21
2022-07-27T02:11:28.965Z,21.88
2022-07-27T02:14:12.786Z,22.08
2022-07-27T02:16:56.583Z,22.12
2022-07-27T02:19:40.430Z,22.03
2022-07-27T02:22:26.518Z,22.09
2022-07-27T02:25:11.573Z,22.04
2022-07-27T02:27:56.956Z,21.96
2022-07-27T02:30:42.020Z,21.87
2022-07-27T02:33:26.071Z,21.53
2022-07-27T02:36:09.906Z,21.56
2022-07-27T02:38:54.419Z,21.97
2022-07-27T02:41:38.213Z,22.03
2022-07-27T02:44:23.565Z,21.77
2022-07-27T02:47:07.568Z,21.65
2022-07-27T02:49:51.513Z,21.64
2022-07-27T02:52:35.491Z,21.71
2022-07-27T02:55:19.434Z,21.68
2022-07-27T02:58:03.284Z,21.86
2022-07-27T03:00:49.108Z,21.45
2022-07-27T03:03:37.077Z,21.73
2022-07-27T03:06:21.976Z,21.82
2022-07-27T03:09:06.345Z,21.90
2022-07-27T03:11:50.273Z,21.76
2022-07-27T03:14:34.274Z,21.92
2022-07-27T03:17:19.563Z,21.93
2022-07-27T03:20:03.762Z,21.93
2022-07-27T03:22:48.975Z,21.73
2022-07-27T03:25:32.916Z,22.05
2022-07-27T03:28:17.093Z,22.06
2022-07-27T03:31:01.289Z,22.24
2022-07-27T03:33:46.735Z,22.16
2022-07-27T03:36:30.818Z,22.32
2022-07-27T03:39:15.214Z,22.53
2022-07-27T03:41:59.329Z,22.90
2022-07-27T03:44:43.482Z,22.72
2022-07-27T03:47:27.384Z,22.67
2022-07-27T03:50:12.729Z,22.71
2022-07-27T03:52:56.605Z,23.17
2022-07-27T03:55:40.592Z,23.23
2022-07-27T03:58:24.487Z,23.21
2022-07-27T04:01:08.387Z,23.30
2022-07-27T04:03:52.334Z,23.56
2022-07-27T04:06:37.783Z,23.66
2022-07-27T04:09:23.129Z,23.81
2022-07-27T04:12:09.646Z,23.84
2022-07-27T04:14:53.447Z,23.96
2022-07-27T04:17:54.169Z,23.89
2022-07-27T04:20:41.164Z,24.11
2022-07-27T04:23:26.501Z,24.18
2022-07-27T04:26:10.369Z,24.32
2022-07-27T04:28:54.247Z,24.58
2022-07-27T04:31:38.222Z,24.63
2022-07-27T04:34:22.309Z,24.52
2022-07-27T04:37:06.290Z,24.67
2022-07-27T04:39:51.643Z,24.84
2022-07-27T04:42:35.482Z,25.08
2022-07-27T04:45:19.416Z,25.20
2022-07-27T04:48:07.420Z,25.51
2022-07-27T04:50:51.372Z,25.69
2022-07-27T04:53:36.895Z,25.93
2022-07-27T04:56:39.224Z,26.02
2022-07-27T04:59:23.030Z,26.25
2022-07-27T05:02:06.893Z,26.44
2022-07-27T05:04:52.317Z,26.69
2022-07-27T05:07:36.724Z,26.82
2022-07-27T05:10:20.891Z,27.05
2022-07-27T05:13:07.441Z,27.09
2022-07-27T05:15:55.545Z,27.40
2022-07-27T05:18:41.020Z,27.61
2022-07-27T05:21:25.211Z,27.75
2022-07-27T05:24:10.297Z,27.71
2022-07-27T05:26:54.284Z,27.68
2022-07-27T05:29:39.578Z,27.92
2022-07-27T05:32:23.903Z,28.01
2022-07-27T05:35:09.162Z,28.23
2022-07-27T05:37:53.031Z,28.17
2022-07-27T05:40:37.001Z,28.03
2022-07-27T05:43:20.883Z,28.41
2022-07-27T05:46:06.255Z,28.52
2022-07-27T05:48:50.876Z,28.29
2022-07-27T05:51:34.846Z,28.26
2022-07-27T05:54:19.478Z,28.63
2022-07-27T05:57:03.431Z,28.67
2022-07-27T05:59:47.360Z,28.96
2022-07-27T06:02:32.685Z,29.11
2022-07-27T06:05:17.219Z,29.02
2022-07-27T06:08:00.918Z,29.27
2022-07-27T06:10:45.134Z,29.08
2022-07-27T06:13:29.207Z,28.86
2022-07-27T06:16:13.399Z,28.86
2022-07-27T06:18:58.795Z,28.02
2022-07-27T06:21:43.369Z,28.56
2022-07-27T06:24:27.255Z,28.84
2022-07-27T06:27:11.124Z,29.25
2022-07-27T06:29:55.263Z,29.30
2022-07-27T06:32:39.333Z,29.28
2022-07-27T06:35:24.692Z,29.32
2022-07-27T06:38:09.581Z,29.40
2022-07-27T06:40:54.219Z,29.50
2022-07-27T06:43:38.210Z,29.49
2022-07-27T06:46:22.239Z,29.23
2022-07-27T06:49:06.589Z,29.34
2022-07-27T06:51:51.986Z,29.36
2022-07-27T06:54:36.036Z,29.61
2022-07-27T06:57:19.981Z,29.55
2022-07-27T07:00:04.202Z,29.57
2022-07-27T07:02:55.599Z,29.87
2022-07-27T07:05:43.990Z,29.39
2022-07-27T07:08:29.204Z,29.68
2022-07-27T07:11:14.223Z,29.93
2022-07-27T07:13:58.088Z,30.19
2022-07-27T07:16:41.971Z,30.33
2022-07-27T07:19:25.883Z,30.49
2022-07-27T07:22:09.814Z,30.67
2022-07-27T07:24:59.349Z,30.59
2022-07-27T07:27:47.171Z,30.49
2022-07-27T07:30:31.867Z,30.53
2022-07-27T07:33:16.177Z,30.67
2022-07-27T07:36:14.192Z,30.68
2022-07-27T07:39:00.081Z,30.43
2022-07-27T07:41:45.381Z,31.07
2022-07-27T07:44:29.323Z,31.12
2022-07-27T07:47:13.226Z,30.36
2022-07-27T07:49:57.197Z,31.26
2022-07-27T07:52:41.353Z,31.42
2022-07-27T07:55:27.802Z,31.39
2022-07-27T07:58:13.751Z,31.18
2022-07-27T08:00:57.748Z,31.56
2022-07-27T08:03:41.659Z,31.59
2022-07-27T08:06:28.972Z,31.27
2022-07-27T08:09:15.174Z,31.12
2022-07-27T08:11:59.368Z,31.41
2022-07-27T08:14:44.541Z,31.68
2022-07-27T08:17:28.383Z,31.96
2022-07-27T08:20:13.807Z,31.38
2022-07-27T08:22:57.713Z,32.35
2022-07-27T08:25:41.713Z,32.63
2022-07-27T08:28:25.786Z,32.44
2022-07-27T08:31:15.272Z,32.30
2022-07-27T08:34:02.912Z,32.69
2022-07-27T08:36:46.785Z,32.86
2022-07-27T08:40:35.371Z,32.79
2022-07-27T08:42:34.632Z,33.05
2022-07-27T08:45:20.548Z,32.90
2022-07-27T08:48:06.925Z,32.59
2022-07-27T08:50:51.022Z,32.29
2022-07-27T08:53:53.876Z,32.71
2022-07-27T08:56:38.561Z,32.77
2022-07-27T08:59:22.448Z,33.05
2022-07-27T09:02:12.064Z,33.01
2022-07-27T09:04:57.900Z,32.77
2022-07-27T09:07:41.737Z,32.82
2022-07-27T09:10:38.363Z,32.59
2022-07-27T09:13:24.798Z,33.03
2022-07-27T09:16:19.601Z,32.62
2022-07-27T09:19:07.318Z,32.95
2022-07-27T09:21:52.709Z,32.44
2022-07-27T09:24:46.599Z,32.55
2022-07-27T09:27:32.116Z,32.91
2022-07-27T09:30:17.911Z,32.38
2022-07-27T09:33:06.138Z,32.53
2022-07-27T09:35:59.480Z,32.45
2022-07-27T09:39:01.767Z,32.30
2022-07-27T09:41:48.287Z,32.98
2022-07-27T09:44:42.250Z,32.39
2022-07-27T09:47:30.029Z,32.37
2022-07-27T09:50:21.693Z,32.16
2022-07-27T09:53:41.557Z,31.98
2022-07-27T09:56:27.429Z,32.35
2022-07-27T09:59:19.082Z,32.27
2022-07-27T10:02:03.159Z,32.05
2022-07-27T10:04:48.791Z,32.85
2022-07-27T10:07:32.891Z,32.18
2022-07-27T10:10:17.547Z,32.28
2022-07-27T10:13:02.871Z,32.06
2022-07-27T10:15:47.024Z,32.48
2022-07-27T10:18:55.509Z,32.24
2022-07-27T10:21:41.320Z,32.27
2022-07-27T10:24:28.869Z,32.71
2022-07-27T10:27:23.356Z,32.37
2022-07-27T10:30:09.654Z,31.63
2022-07-27T10:32:53.751Z,31.95
2022-07-27T10:35:37.719Z,31.73
2022-07-27T10:38:21.810Z,32.13
2022-07-27T10:41:24.345Z,32.42
2022-07-27T10:44:30.633Z,32.40
2022-07-27T10:47:29.997Z,32.15
2022-07-27T10:50:26.231Z,31.82
2022-07-27T10:53:15.063Z,31.68
2022-07-27T10:55:58.970Z,32.12
2022-07-27T10:59:00.793Z,32.25
2022-07-27T11:01:58.473Z,32.36
2022-07-27T11:04:48.621Z,32.18
2022-07-27T11:07:44.158Z,31.50
2022-07-27T11:10:30.305Z,32.44
2022-07-27T11:13:14.852Z,32.11
2022-07-27T11:16:22.977Z,32.01
2022-07-27T11:19:07.638Z,32.02
2022-07-27T11:21:53.992Z,31.66
2022-07-27T11:24:38.263Z,32.13
2022-07-27T11:27:25.187Z,31.69
2022-07-27T11:30:22.903Z,31.93
2022-07-27T11:33:07.366Z,31.65
2022-07-27T11:35:55.383Z,31.97
2022-07-27T11:38:53.100Z,32.12
2022-07-27T11:42:07.843Z,31.75
2022-07-27T11:44:44.860Z,31.49
2022-07-27T11:47:30.872Z,31.70
2022-07-27T11:50:15.712Z,31.42
2022-07-27T11:53:01.947Z,31.85
2022-07-27T11:55:51.425Z,32.41
2022-07-27T11:58:35.399Z,31.81
2022-07-27T12:01:28.816Z,31.75
2022-07-27T12:04:16.336Z,31.66
2022-07-27T12:07:10.804Z,31.52
2022-07-27T12:09:57.024Z,31.53
2022-07-27T12:12:42.308Z,31.95
2022-07-27T12:15:45.376Z,32.59
2022-07-27T12:18:42.921Z,31.57
2022-07-27T12:21:27.592Z,31.87
2022-07-27T12:24:16.185Z,31.97
2022-07-27T12:27:08.516Z,32.28
2022-07-27T12:30:01.075Z,31.78
2022-07-27T12:32:46.649Z,31.91
2022-07-27T12:35:37.359Z,31.51
2022-07-27T12:38:22.948Z,31.04
2022-07-27T12:41:07.003Z,31.70
2022-07-27T12:44:06.611Z,32.14
2022-07-27T12:47:01.760Z,31.38
2022-07-27T12:49:46.688Z,30.94
2022-07-27T12:52:30.751Z,31.05
2022-07-27T12:55:16.052Z,31.22
2022-07-27T12:58:00.189Z,31.26
2022-07-27T13:00:44.375Z,30.82
2022-07-27T13:03:29.756Z,31.03
2022-07-27T13:06:14.176Z,30.41
2022-07-27T13:08:58.091Z,30.63
2022-07-27T13:11:46.193Z,30.83
2022-07-27T13:14:31.721Z,30.74
2022-07-27T13:17:15.727Z,30.67
2022-07-27T13:20:01.041Z,31.39
2022-07-27T13:22:47.956Z,30.25
2022-07-27T13:25:32.107Z,30.69
2022-07-27T13:28:15.931Z,31.17
2022-07-27T13:30:59.938Z,30.39
2022-07-27T13:33:43.973Z,30.69
2022-07-27T13:36:29.357Z,30.80
2022-07-27T13:39:15.389Z,30.91
2022-07-27T13:41:59.770Z,31.22
2022-07-27T13:45:03.939Z,31.70
2022-07-27T13:47:48.727Z,31.33
2022-07-27T13:50:32.643Z,32.07
2022-07-27T13:53:19.066Z,32.51
2022-07-27T13:56:03.760Z,31.31
2022-07-27T13:58:47.909Z,31.04
2022-07-27T14:01:32.546Z,31.09
2022-07-27T14:04:16.430Z,31.88
2022-07-27T14:07:02.878Z,31.03
2022-07-27T14:10:05.582Z,31.32
2022-07-27T14:12:49.439Z,30.34
2022-07-27T14:15:33.424Z,30.86
2022-07-27T14:18:17.357Z,30.89
2022-07-27T14:21:04.055Z,31.48
2022-07-27T14:23:48.534Z,30.99
2022-07-27T14:26:33.720Z,30.43
2022-07-27T14:29:17.500Z,30.76
2022-07-27T14:32:01.532Z,31.23
2022-07-27T14:34:45.631Z,30.31
2022-07-27T14:37:29.664Z,30.65
2022-07-27T14:40:15.378Z,30.90
2022-07-27T14:43:00.737Z,31.81
2022-07-27T14:45:46.328Z,31.23
2022-07-27T14:49:04.498Z,30.79
2022-07-27T14:51:35.849Z,31.25
2022-07-27T14:54:19.917Z,31.28
2022-07-27T14:57:03.877Z,31.49
2022-07-27T14:59:49.355Z,31.07
2022-07-27T15:02:33.262Z,32.26
2022-07-27T15:05:17.699Z,32.22
2022-07-27T15:08:01.530Z,32.57
2022-07-27T15:10:46.310Z,32.86
2022-07-27T15:13:30.258Z,31.91
2022-07-27T15:16:15.608Z,31.39
2022-07-27T15:18:59.516Z,31.91
2022-07-27T15:21:43.382Z,31.12
2022-07-27T15:24:27.424Z,31.74
2022-07-27T15:27:11.264Z,30.96
2022-07-27T15:29:55.067Z,32.22
2022-07-27T15:32:40.455Z,31.81
2022-07-27T15:35:24.642Z,32.58
2022-07-27T15:38:08.609Z,31.74
2022-07-27T15:40:52.509Z,30.92
2022-07-27T15:43:36.348Z,31.50
2022-07-27T15:46:27.394Z,32.15
2022-07-27T15:49:13.598Z,31.97
2022-07-27T15:51:57.865Z,31.16
2022-07-27T15:54:45.355Z,30.52
2022-07-27T15:57:29.548Z,30.70
2022-07-27T16:00:14.624Z,30.38
2022-07-27T16:02:59.071Z,29.75
2022-07-27T16:05:47.696Z,30.64
2022-07-27T16:08:31.781Z,29.89
2022-07-27T16:11:15.818Z,29.56
2022-07-27T16:13:59.667Z,29.19
2022-07-27T16:16:44.756Z,29.88
2022-07-27T16:19:28.726Z,29.72
2022-07-27T16:22:14.136Z,29.22
2022-07-27T16:24:57.929Z,30.01
2022-07-27T16:27:41.804Z,29.21
2022-07-27T16:30:28.416Z,29.52
2022-07-27T16:33:12.237Z,29.27
2022-07-27T16:35:56.134Z,29.63
2022-07-27T16:38:49.846Z,29.37
2022-07-27T16:41:34.777Z,30.18
2022-07-27T16:44:20.607Z,29.26
2022-07-27T16:47:06.998Z,29.20
2022-07-27T16:49:51.153Z,28.85
2022-07-27T16:52:35.164Z,28.86
2022-07-27T16:55:21.280Z,28.04
2022-07-27T16:58:09.452Z,28.20
2022-07-27T17:00:53.984Z,28.41
2022-07-27T17:03:38.836Z,29.15
2022-07-27T17:06:23.129Z,28.69
2022-07-27T17:09:07.070Z,28.41
2022-07-27T17:11:52.528Z,28.06
2022-07-27T17:14:38.198Z,27.97
2022-07-27T17:17:22.209Z,28.47
2022-07-27T17:20:07.095Z,28.31
2022-07-27T17:22:50.954Z,27.61
2022-07-27T17:25:34.897Z,28.26
2022-07-27T17:28:20.743Z,28.23
2022-07-27T17:31:05.164Z,27.98
2022-07-27T17:33:49.212Z,28.42
2022-07-27T17:36:33.091Z,28.15
2022-07-27T17:39:17.240Z,28.25
2022-07-27T17:42:01.137Z,28.31
2022-07-27T17:44:46.417Z,28.16
2022-07-27T17:47:30.295Z,28.07
2022-07-27T17:50:14.192Z,28.31
2022-07-27T17:52:59.332Z,28.37
2022-07-27T17:55:43.120Z,28.22
2022-07-27T17:58:30.269Z,28.11
2022-07-27T18:01:16.208Z,28.19
2022-07-27T18:04:00.196Z,28.32
2022-07-27T18:06:44.181Z,28.14
2022-07-27T18:09:28.050Z,27.85
2022-07-27T18:12:11.928Z,27.72
2022-07-27T18:15:13.695Z,27.86
2022-07-27T18:17:59.043Z,27.97
2022-07-27T18:20:43.008Z,27.92
2022-07-27T18:23:27.019Z,27.86
2022-07-27T18:26:11.154Z,28.05
2022-07-27T18:28:56.200Z,28.02
2022-07-27T18:31:40.155Z,28.02
2022-07-27T18:34:25.682Z,27.62
2022-07-27T18:37:09.486Z,27.94
2022-07-27T18:39:53.289Z,27.91
2022-07-27T18:42:37.303Z,27.88
2022-07-27T18:45:21.316Z,27.63
2022-07-27T18:48:10.090Z,27.66
2022-07-27T18:50:55.559Z,27.68
2022-07-27T18:53:39.570Z,27.88
2022-07-27T18:56:23.468Z,27.75
2022-07-27T18:59:07.534Z,27.60
2022-07-27T19:01:51.508Z,27.72
2022-07-27T19:04:35.771Z,27.37
2022-07-27T19:07:22.024Z,27.54
2022-07-27T19:10:08.930Z,27.62
2022-07-27T19:12:53.373Z,27.63
2022-07-27T19:15:37.668Z,27.68
2022-07-27T19:18:23.657Z,27.56
2022-07-27T19:21:07.804Z,27.37
2022-07-27T19:23:53.126Z,27.49
2022-07-27T19:26:37.037Z,27.20
2022-07-27T19:29:22.759Z,27.38
2022-07-27T19:32:07.929Z,27.41
2022-07-27T19:34:51.781Z,27.31
2022-07-27T19:37:35.858Z,27.12
2022-07-27T19:43:25.277Z,27.28
2022-07-27T19:46:10.212Z,27.29
2022-07-27T19:48:54.977Z,27.27
2022-07-27T19:51:39.002Z,27.23
2022-07-27T19:54:22.845Z,27.23
2022-07-27T19:57:08.182Z,27.24
2022-07-27T19:59:55.880Z,27.21
2022-07-27T20:02:40.589Z,27.37
2022-07-27T20:05:24.607Z,27.44
2022-07-27T20:08:08.409Z,27.28
2022-07-27T20:10:52.228Z,27.47
2022-07-27T20:13:37.587Z,27.62
2022-07-27T20:16:21.502Z,27.63
2022-07-27T20:19:05.653Z,27.64
2022-07-27T20:21:49.530Z,27.59
2022-07-27T20:24:33.538Z,27.54
2022-07-27T20:27:17.435Z,27.47
2022-07-27T20:30:02.729Z,27.40
2022-07-27T20:32:49.009Z,27.30
2022-07-27T20:35:37.740Z,27.56
2022-07-27T20:38:22.009Z,27.42
2022-07-27T20:41:06.103Z,27.33
2022-07-27T20:43:50.160Z,27.51
2022-07-27T20:46:37.949Z,27.29
2022-07-27T20:49:22.045Z,27.47
2022-07-27T20:52:07.694Z,27.37
2022-07-27T20:54:51.748Z,27.47
2022-07-27T20:57:35.902Z,27.27
2022-07-27T21:00:19.993Z,27.31
2022-07-27T21:03:05.232Z,27.16
2022-07-27T21:05:49.053Z,27.03
2022-07-27T21:08:33.002Z,27.22
2022-07-27T21:11:16.982Z,27.27
2022-07-27T21:14:01.232Z,27.17
2022-07-27T21:16:45.277Z,27.01
2022-07-27T21:19:30.587Z,27.05
2022-07-27T21:22:14.516Z,27.09
2022-07-27T21:24:58.868Z,26.93
2022-07-27T21:27:43.756Z,27.03
2022-07-27T21:30:28.820Z,26.65
2022-07-27T21:33:13.084Z,26.93
2022-07-27T21:35:58.434Z,26.63
2022-07-27T21:38:42.278Z,26.96
2022-07-27T21:41:26.185Z,27.10
2022-07-27T21:44:10.270Z,27.17
2022-07-27T21:46:54.445Z,27.25
2022-07-27T21:49:38.360Z,27.25
2022-07-27T21:52:23.637Z,27.19
2022-07-27T21:55:07.984Z,27.30
2022-07-27T21:57:52.230Z,27.02
2022-07-27T22:00:36.255Z,27.22
2022-07-27T22:03:20.459Z,27.27
2022-07-27T22:06:04.433Z,26.76
2022-07-27T22:08:50.612Z,26.99
2022-07-27T22:11:34.547Z,27.05
2022-07-27T22:14:18.472Z,27.18
2022-07-27T22:17:03.160Z,27.20
2022-07-27T22:19:47.091Z,27.25
2022-07-27T22:22:30.865Z,27.25
2022-07-27T22:25:16.697Z,27.13
2022-07-27T22:28:00.520Z,27.17
2022-07-27T22:30:44.421Z,27.13
2022-07-27T22:33:48.268Z,27.21
2022-07-27T22:36:32.691Z,27.12
2022-07-27T22:39:17.059Z,27.27
2022-07-27T22:42:02.587Z,27.32
2022-07-27T22:44:46.567Z,27.25
2022-07-27T22:47:30.419Z,27.34
2022-07-27T22:50:18.167Z,27.18
2022-07-27T22:53:03.033Z,27.08
2022-07-27T22:55:46.782Z,26.98
2022-07-27T22:58:32.104Z,26.94
2022-07-27T23:01:45.624Z,26.76
2022-07-27T23:04:19.930Z,26.87
2022-07-27T23:07:03.879Z,26.94
2022-07-27T23:09:47.657Z,26.78
2022-07-27T23:12:31.604Z,26.62
2022-07-27T23:15:16.834Z,26.52
2022-07-27T23:18:00.845Z,26.64
2022-07-27T23:20:45.721Z,26.33
2022-07-27T23:23:29.805Z,26.27
2022-07-27T23:26:20.207Z,26.22
2022-07-27T23:29:07.096Z,26.04
2022-07-27T23:31:52.437Z,26.19
2022-07-27T23:34:36.303Z,26.38
2022-07-27T23:37:20.195Z,25.72
2022-07-27T23:40:04.855Z,26.37
2022-07-27T23:42:49.124Z,26.39
2022-07-27T23:45:34.669Z,26.24
2022-07-27T23:48:19.969Z,26.08
2022-07-27T23:51:09.271Z,26.06
2022-07-27T23:53:53.105Z,25.99
2022-07-27T23:56:36.968Z,25.76
2022-07-27T23:59:20.899Z,25.57
